Skip Navigation LinksHome page > Weather > Current weather Skip Navigation Links

Current Weather

New Tokyo International (Narita), Tokyo

For information only: do not use for flight planning or navigation.
Latest weather
Observation time Wednesday, December 2, 2015 3:30 PM JST
Local time Wednesday, December 2, 2015 3:52 PM JST
Flight conditions Instrument Meteorological Conditions
Wind direction Northwest (320°)
Wind speed 8 mph
Visibility 2.2 mi.
Present weather rain, mist
Sky condition
Ceiling 1,200 ft. broken clouds
Cloud layer few clouds 500 ft.
Cloud layer few clouds 1,000 ft.
Cloud layer broken clouds 1,200 ft.
Cloud layer scattered clouds 1,500 ft.
Cloud layer broken clouds 2,500 ft.
Temperature 50°F
Dewpoint 46°F
Altimeter 30.18 in.Hg
Derived measurements
Relative humidity 87%
Wind chill 47°F
Density altitude -596 ft.
METAR RJAA 020630Z 32007KT 3500 RA BR FEW010 SCT015 BKN025 10/08 Q1022 TEMPO FEW005 BKN012 RMK 1CU010 3SC015 6SC025 A3018


Location code

InnerDrive.Weather 4.0.5722.1 Release CLR 4.0.30319.34014
Copyright ©2015 Inner Drive Technology. All rights reserved. Portions Copyright ©1986-2015 David Braverman.

Find weather

Site navigation

Skip Navigation Links

Place info

Page info

PayPal - The safer, easier way to pay online!

Return home.

Copyright ©2015 Inner Drive Technology. Purveyors of fine, hand-crafted computer software. Page printed 2015-12-02T06:52:42 UTC.